createdAt,value
2022-08-05T00:02:07.316Z,78616.69
2022-08-05T00:04:38.251Z,78655.41
2022-08-05T00:07:21.741Z,78649.53
2022-08-05T00:09:59.455Z,78646.53
2022-08-05T00:12:28.661Z,78640.88
2022-08-05T00:14:58.792Z,78649.47
2022-08-05T00:17:44.238Z,78641.34
2022-08-05T00:20:20.178Z,78667.31
2022-08-05T00:22:59.622Z,78650.56
2022-08-05T00:25:45.324Z,78634.97
2022-08-05T00:28:16.166Z,78646.13
2022-08-05T00:31:02.826Z,78665.50
2022-08-05T00:34:56.058Z,78666.13
2022-08-05T00:37:10.449Z,78660.66
2022-08-05T00:39:17.235Z,78616.72
2022-08-05T00:41:51.847Z,78659.91
2022-08-05T00:44:30.836Z,78672.97
2022-08-05T00:47:01.521Z,78649.22
2022-08-05T00:49:32.578Z,78662.00
2022-08-05T00:52:02.469Z,78609.19
2022-08-05T00:54:33.032Z,78648.03
2022-08-05T00:57:04.617Z,78618.72
2022-08-05T00:59:42.019Z,78646.81
2022-08-05T01:02:13.959Z,78636.38
2022-08-05T01:04:50.462Z,78656.50
2022-08-05T01:07:20.987Z,78633.97
2022-08-05T01:09:55.691Z,78645.63
2022-08-05T01:12:29.705Z,78659.03
2022-08-05T01:15:18.703Z,78620.94
2022-08-05T01:18:09.198Z,78663.97
2022-08-05T01:21:22.869Z,78654.09
2022-08-05T01:24:24.069Z,78672.44
2022-08-05T01:27:17.741Z,78677.66
2022-08-05T01:29:54.650Z,78685.28
2022-08-05T01:32:29.507Z,78678.13
2022-08-05T01:35:10.462Z,78658.97
2022-08-05T01:37:51.425Z,78664.72
2022-08-05T01:40:29.125Z,78676.44
2022-08-05T01:43:04.148Z,78667.56
2022-08-05T01:45:43.114Z,78660.13
2022-08-05T01:48:13.919Z,78671.09
2022-08-05T01:50:50.887Z,78656.63
2022-08-05T01:53:55.151Z,78659.44
2022-08-05T01:58:09.708Z,78611.81
2022-08-05T01:59:13.579Z,78642.56
2022-08-05T02:01:45.164Z,78660.50
2022-08-05T02:04:20.107Z,78659.84
2022-08-05T02:06:51.559Z,78658.13
2022-08-05T02:09:21.364Z,78667.97
2022-08-05T02:11:54.833Z,78671.06
2022-08-05T02:14:54.415Z,78672.94
2022-08-05T02:18:30.790Z,78669.16
2022-08-05T02:20:28.226Z,78651.25
2022-08-05T02:23:11.512Z,78682.53
2022-08-05T02:25:50.273Z,78675.63
2022-08-05T02:28:31.114Z,78685.81
2022-08-05T02:31:13.807Z,78682.50
2022-08-05T02:33:57.352Z,78687.41
2022-08-05T02:36:31.583Z,78679.78
2022-08-05T02:39:08.707Z,78689.66
2022-08-05T02:41:57.459Z,78698.25
2022-08-05T02:44:31.993Z,78690.28
2022-08-05T02:47:04.106Z,78690.09
2022-08-05T02:49:40.650Z,78697.53
2022-08-05T02:52:30.201Z,78696.97
2022-08-05T02:55:10.653Z,78707.59
2022-08-05T02:58:10.337Z,78704.34
2022-08-05T03:00:33.153Z,78700.69
2022-08-05T03:03:07.646Z,78704.78
2022-08-05T03:06:54.111Z,78700.09
2022-08-05T03:08:34.194Z,78682.81
2022-08-05T03:11:55.114Z,78695.09
2022-08-05T03:14:03.047Z,78686.47
2022-08-05T03:16:33.592Z,78682.59
2022-08-05T03:19:17.226Z,78667.94
2022-08-05T03:21:57.191Z,78661.22
2022-08-05T03:24:30.795Z,78650.69
2022-08-05T03:27:02.353Z,78677.34
2022-08-05T03:29:44.501Z,78696.00
2022-08-05T03:32:20.874Z,78701.34
2022-08-05T03:35:02.173Z,78681.31
2022-08-05T03:37:45.734Z,78652.28
2022-08-05T03:40:31.500Z,78697.03
2022-08-05T03:43:58.252Z,78693.00
2022-08-05T03:45:57.755Z,78678.03
2022-08-05T03:48:35.462Z,78690.13
2022-08-05T03:52:36.907Z,78685.25
2022-08-05T03:55:53.358Z,78677.72
2022-08-05T03:57:16.313Z,78694.22
2022-08-05T03:59:54.988Z,78697.16
2022-08-05T04:02:37.882Z,78619.97
2022-08-05T04:05:11.761Z,78702.59
2022-08-05T04:07:57.454Z,78700.97
2022-08-05T04:10:37.716Z,78701.69
2022-08-05T04:13:10.552Z,78706.75
2022-08-05T04:16:03.233Z,78702.31
2022-08-05T04:18:31.711Z,78703.97
2022-08-05T04:21:02.394Z,78674.47
2022-08-05T04:24:00.238Z,78675.25
2022-08-05T04:26:32.422Z,78690.31
2022-08-05T04:29:07.408Z,78687.94
2022-08-05T04:31:39.478Z,78702.09
2022-08-05T04:34:31.283Z,78711.03
2022-08-05T04:36:59.700Z,78710.72
2022-08-05T04:39:30.887Z,78682.63
2022-08-05T04:42:02.072Z,78678.81
2022-08-05T04:44:35.113Z,78702.13
2022-08-05T04:47:09.131Z,78695.50
2022-08-05T04:50:03.098Z,78674.06
2022-08-05T04:52:34.145Z,78703.22
2022-08-05T04:55:14.758Z,78690.72
2022-08-05T04:57:54.029Z,78691.31
2022-08-05T05:00:25.431Z,78714.16
2022-08-05T05:02:59.116Z,78711.06
2022-08-05T05:06:40.040Z,78701.22
2022-08-05T05:08:30.191Z,78680.16
2022-08-05T05:11:00.552Z,78687.94
2022-08-05T05:13:32.362Z,78672.91
2022-08-05T05:16:13.831Z,78695.50
2022-08-05T05:19:08.934Z,78666.47
2022-08-05T05:21:36.551Z,78683.31
2022-08-05T05:24:08.883Z,78685.31
2022-08-05T05:26:39.952Z,78682.22
2022-08-05T05:29:16.712Z,78690.69
2022-08-05T05:31:49.299Z,78683.16
2022-08-05T05:34:26.817Z,78676.03
2022-08-05T05:36:57.792Z,78651.94
2022-08-05T05:39:31.524Z,78680.06
2022-08-05T05:42:04.911Z,78672.41
2022-08-05T05:44:36.755Z,78675.38
2022-08-05T05:47:21.489Z,78686.69
2022-08-05T05:50:01.820Z,78664.41
2022-08-05T05:52:38.010Z,78673.16
2022-08-05T05:55:14.012Z,78654.72
2022-08-05T05:57:52.195Z,78659.16
2022-08-05T06:00:27.782Z,78645.09
2022-08-05T06:03:40.255Z,78661.16
2022-08-05T06:06:12.191Z,78647.03
2022-08-05T06:08:42.392Z,78655.97
2022-08-05T06:11:20.652Z,78640.03
2022-08-05T06:13:54.118Z,78650.91
2022-08-05T06:16:32.610Z,78651.47
2022-08-05T06:19:05.773Z,78650.50
2022-08-05T06:21:42.910Z,78642.53
2022-08-05T06:24:25.861Z,78651.22
2022-08-05T06:26:57.432Z,78661.41
2022-08-05T06:29:51.945Z,78652.50
2022-08-05T06:32:25.323Z,78654.75
2022-08-05T06:34:58.072Z,78672.34
2022-08-05T06:37:58.075Z,78669.75
2022-08-05T06:40:21.140Z,78640.56
2022-08-05T06:42:52.973Z,78648.69
2022-08-05T06:45:44.823Z,78637.63
2022-08-05T06:48:47.186Z,78607.13
2022-08-05T06:51:09.482Z,78618.25
2022-08-05T06:53:40.003Z,78612.59
2022-08-05T06:56:25.940Z,78568.56
2022-08-05T06:58:57.594Z,78593.09
2022-08-05T07:01:32.190Z,78608.97
2022-08-05T07:04:03.591Z,78609.72
2022-08-05T07:06:33.292Z,78628.84
2022-08-05T07:09:06.630Z,78619.66
2022-08-05T07:11:40.872Z,78595.72
2022-08-05T07:14:32.165Z,78604.13
2022-08-05T07:17:58.471Z,78582.91
2022-08-05T07:20:32.107Z,78599.53
2022-08-05T07:22:46.082Z,78613.88
2022-08-05T07:25:22.525Z,78603.72
2022-08-05T07:28:09.636Z,78618.41
2022-08-05T07:30:41.854Z,78619.84
2022-08-05T07:33:17.112Z,78620.38
2022-08-05T07:36:03.568Z,78608.72
2022-08-05T07:38:43.491Z,78611.22
2022-08-05T07:42:08.289Z,78598.31
2022-08-05T07:44:18.505Z,78590.34
2022-08-05T07:46:50.933Z,78576.00
2022-08-05T07:49:23.044Z,78581.47
2022-08-05T07:51:55.043Z,78561.72
2022-08-05T07:54:33.609Z,78577.50
2022-08-05T07:57:16.969Z,78563.38
2022-08-05T07:59:59.035Z,78582.78
2022-08-05T08:03:13.322Z,78574.94
2022-08-05T08:05:21.112Z,78560.69
2022-08-05T08:07:59.060Z,78547.13
2022-08-05T08:10:31.353Z,78562.94
2022-08-05T08:13:03.033Z,78549.63
2022-08-05T08:16:33.287Z,78558.53
2022-08-05T08:18:22.991Z,78569.94
2022-08-05T08:21:02.729Z,78587.09
2022-08-05T08:24:01.329Z,78546.31
2022-08-05T08:26:26.834Z,78557.34
2022-08-05T08:29:45.117Z,78560.47
2022-08-05T08:31:54.654Z,78566.50
2022-08-05T08:34:30.389Z,78533.91
2022-08-05T08:37:03.344Z,78559.88
2022-08-05T08:39:37.635Z,78549.00
2022-08-05T08:42:33.621Z,78548.00
2022-08-05T08:45:18.857Z,78587.78
2022-08-05T08:48:12.909Z,78570.69
2022-08-05T08:51:03.814Z,78590.66
2022-08-05T08:53:44.373Z,78602.28
2022-08-05T08:56:15.039Z,78595.59
2022-08-05T08:58:47.869Z,78579.00
2022-08-05T09:01:20.114Z,78599.88
2022-08-05T09:03:57.604Z,78604.94
2022-08-05T09:06:33.271Z,78564.38
2022-08-05T09:15:16.092Z,78571.06
2022-08-05T09:18:03.592Z,78551.63
2022-08-05T09:30:44.335Z,78539.63
2022-08-05T09:50:01.566Z,78529.13
2022-08-05T09:58:43.653Z,78501.78
2022-08-05T10:07:59.406Z,78475.66
2022-08-05T10:10:28.012Z,78484.84
2022-08-05T10:32:52.469Z,78437.47
2022-08-05T10:43:54.944Z,78447.69
2022-08-05T10:56:21.427Z,78435.00
2022-08-05T11:02:34.980Z,78425.44
2022-08-05T11:11:52.977Z,78446.53
2022-08-05T11:15:11.797Z,78441.75
2022-08-05T11:27:37.016Z,78446.28
2022-08-05T11:38:27.962Z,78464.59
2022-08-05T11:44:40.192Z,78477.84
2022-08-05T11:50:32.557Z,78474.53
2022-08-05T11:53:21.876Z,78480.56
2022-08-05T12:11:41.750Z,78502.88
2022-08-05T12:18:03.110Z,78477.91
2022-08-05T12:20:52.273Z,78469.28
2022-08-05T12:23:21.754Z,78480.19
2022-08-05T12:32:04.693Z,78455.06
2022-08-05T12:47:04.553Z,78459.34
2022-08-05T13:01:56.678Z,78445.19
2022-08-05T13:02:39.830Z,78422.38
2022-08-05T13:14:42.232Z,78424.97
2022-08-05T13:17:31.766Z,78422.78
2022-08-05T13:26:50.646Z,78396.41
2022-08-05T13:29:38.772Z,78397.34
2022-08-05T13:35:54.233Z,78412.28
2022-08-05T13:41:37.759Z,78405.97
2022-08-05T13:44:10.120Z,78411.59
2022-08-05T13:50:04.190Z,78413.63
2022-08-05T13:55:42.591Z,78408.66
2022-08-05T13:58:40.274Z,78412.59
2022-08-05T14:01:44.360Z,78404.59
2022-08-05T14:04:54.678Z,78413.56
2022-08-05T14:08:01.175Z,78408.13
2022-08-05T14:10:53.114Z,78403.97
2022-08-05T14:20:02.352Z,78400.31
2022-08-05T14:26:00.789Z,78393.38
2022-08-05T14:28:52.415Z,78399.22
2022-08-05T14:32:03.618Z,78382.13
2022-08-05T14:47:06.732Z,78410.63
2022-08-05T14:52:52.433Z,78395.78
2022-08-05T15:01:18.198Z,78405.31
2022-08-05T15:10:28.628Z,78433.44
2022-08-05T15:28:42.877Z,78430.41
2022-08-05T15:38:33.474Z,78453.97
2022-08-05T15:50:00.837Z,78466.69
2022-08-05T15:52:53.871Z,78473.50
2022-08-05T16:04:58.395Z,78477.25
2022-08-05T16:13:36.953Z,78491.78
2022-08-05T16:22:35.336Z,78498.41
2022-08-05T16:31:14.512Z,78502.75
2022-08-05T16:36:48.953Z,78496.31
2022-08-05T16:40:06.133Z,78509.72
2022-08-05T16:42:46.054Z,78485.66
2022-08-05T16:48:44.474Z,78510.47
2022-08-05T16:54:28.644Z,78498.44
2022-08-05T17:05:59.445Z,78493.91
2022-08-05T17:08:33.386Z,78454.03
2022-08-05T17:11:25.974Z,78493.81
2022-08-05T17:14:05.658Z,78492.94
2022-08-05T17:25:49.036Z,78497.72
2022-08-05T17:34:32.632Z,78486.75
2022-08-05T17:40:12.702Z,78488.63
2022-08-05T17:42:50.967Z,78479.09
2022-08-05T17:45:22.952Z,78489.25
2022-08-05T17:57:23.254Z,78498.31
2022-08-05T18:09:10.794Z,78493.97
2022-08-05T18:12:02.393Z,78464.63
2022-08-05T18:14:53.113Z,78503.94
2022-08-05T18:17:58.959Z,78496.03
2022-08-05T18:31:16.397Z,78494.31
2022-08-05T18:33:49.815Z,78469.44
2022-08-05T18:40:31.772Z,78483.28
2022-08-05T18:45:56.166Z,78458.19
2022-08-05T18:52:08.513Z,78463.97
2022-08-05T19:00:48.084Z,78478.41
2022-08-05T19:06:22.382Z,78466.13
2022-08-05T19:18:35.353Z,78432.47
2022-08-05T19:43:05.382Z,78463.13
2022-08-05T19:58:29.329Z,78450.38
2022-08-05T20:01:27.192Z,78456.25
2022-08-05T20:07:46.828Z,78463.97
2022-08-05T20:13:58.994Z,78453.84
2022-08-05T20:19:45.373Z,78443.16
2022-08-05T20:25:40.172Z,78448.63
2022-08-05T20:34:35.912Z,78460.63
2022-08-05T20:43:57.423Z,78456.91
2022-08-05T20:46:39.592Z,78447.88
2022-08-05T20:58:22.064Z,78459.72
2022-08-05T21:04:14.397Z,78465.31
2022-08-05T21:13:02.647Z,78477.56
2022-08-05T21:15:59.774Z,78467.25
2022-08-05T21:27:59.986Z,78477.09
2022-08-05T21:30:48.817Z,78471.81
2022-08-05T21:33:22.433Z,78470.41
2022-08-05T21:36:10.892Z,78443.28
2022-08-05T21:38:40.817Z,78480.44
2022-08-05T21:41:12.009Z,78465.41
2022-08-05T21:50:09.424Z,78472.75
2022-08-05T21:52:59.145Z,78478.78
2022-08-05T22:05:17.127Z,78472.00
2022-08-05T22:10:53.257Z,78472.66
2022-08-05T22:16:51.155Z,78465.88
2022-08-05T22:23:02.864Z,78458.97
2022-08-05T22:26:10.102Z,78483.44
2022-08-05T22:28:40.833Z,78455.09
2022-08-05T22:46:29.899Z,78465.22
2022-08-05T22:55:18.221Z,78452.84
2022-08-05T23:04:15.061Z,78468.72
2022-08-05T23:13:12.550Z,78467.72
2022-08-05T23:15:59.991Z,78464.38
2022-08-05T23:34:09.906Z,78481.56
2022-08-05T23:36:58.990Z,78467.81
2022-08-05T23:39:54.239Z,78482.22
2022-08-05T23:45:28.064Z,78484.16
2022-08-05T23:54:36.250Z,78486.69
